Time;durP1;ratioP1;P1;durP2;ratioP2;P2;SDS_P1;SDS_P2;PMS_P1;PMS_P2;Temp;Humidity;BMP_temperature;BMP_pressure;BME280_temperature;BME280_humidity;BME280_pressure;Samples;Min_cycle;Max_cycle;Signal;HPM_P1;HPM_P2
2023/02/13 06:17:20;;;;;;;;;;;;;;;;;;4880434;29;20046;-94
2023/02/13 06:19:47;;;;;;;;;;;;;;;;;;4846028;29;20027;-93
2023/02/13 06:25:00;;;;;;;;;;;;;;;;;;4859472;29;19940;-93
2023/02/13 06:27:36;;;;;;;;;;;;;;;;;;;;;
2023/02/13 06:30:04;;;;;;;;;;;;;;;;;;4846793;29;19924;-95
2023/02/13 06:32:51;;;;;;;;;;;;;;;;;;4861891;29;19935;-96
2023/02/13 06:35:24;;;;;;;;;;;;;;;;;;4846701;29;19924;-94
2023/02/13 06:37:50;;;;;;;;;;;;;;;;;;4846370;29;19972;-93
2023/02/13 06:43:14;;;;;;;;;;;;;;;;;;;;;
2023/02/13 06:45:46;;;;;;;;;;;;;;;;;;4846792;29;19940;-96
2023/02/13 06:59:15;;;;;;;;;;;;;;;;;;4890046;29;19999;-95
2023/02/13 07:04:49;;;;;;;;;;;;;;;;;;4874867;29;19924;-95
2023/02/13 07:07:18;;;;;;;;;;;;;;;;;;4869404;29;20316;-94
2023/02/13 07:09:44;;;;;;;;;;;;;;;;;;4973563;23;19928;-93
2023/02/13 07:12:10;;;;;;;;;;;;;;;;;;4860851;29;19924;-94
2023/02/13 07:14:36;;;;;;;;;;;;;;;;;;4861386;29;19931;-95
2023/02/13 07:17:04;;;;;;;;;;;;;;;;;;4861514;29;19935;-95
2023/02/13 07:19:32;;;;;;;;;;;;;;;;;;4861498;29;19931;-95
2023/02/13 07:21:58;;;;;;;;;;;;;;;;;;4861039;29;20346;-95
2023/02/13 07:24:24;;;;;;;;;;;;;;;;;;4860200;29;19935;-95
2023/02/13 07:26:50;;;;;;;;;;;;;;;;;;4860910;29;20017;-95
2023/02/13 07:29:19;;;;;;;;;;;;;;;;;;4876585;29;19925;-94
2023/02/13 07:34:43;;;;;;;;;;;;;;;;;;4841209;29;20015;-93
2023/02/13 07:37:10;;;;;;;;;;;;;;;;;;4875979;29;19924;-92
2023/02/13 07:39:37;;;;;;;;;;;;;;;;;;4860715;29;19988;-93
2023/02/13 07:42:03;;;;;;;;;;;;;;;;;;4861275;29;20356;-93
2023/02/13 07:44:38;;;;;;;;;;;;;;;;;;4876839;29;20064;-93
2023/02/13 07:47:04;;;;;;;;;;;;;;;;;;4861158;29;19943;-92
2023/02/13 07:49:30;;;;;;;;;;;;;;;;;;4860538;29;19927;-91
2023/02/13 07:51:57;;;;;;;;;;;;;;;;;;4844972;29;19923;-90
2023/02/13 07:54:23;;;;;;;;;;;;;;;;;;4860734;29;20364;-94
2023/02/13 07:56:49;;;;;;;;;;;;;;;;;;4861149;29;19925;-90
2023/02/13 07:59:15;;;;;;;;;;;;;;;;;;4860560;29;20357;-90
2023/02/13 08:01:41;;;;;;;;;;;;;;;;;;4875567;29;20506;-92
2023/02/13 08:04:06;;;;;;;;;;;;;;;;;;4860399;29;19976;-88
2023/02/13 08:06:32;;;;;;;;;;;;;;;;;;4859944;29;19955;-92
2023/02/13 08:11:52;;;;;;;;;;;;;;;;;;4875690;29;19971;-91
2023/02/13 08:14:18;;;;;;;;;;;;;;;;;;4860067;29;19946;-90
2023/02/13 08:16:44;;;;;;;;;;;;;;;;;;4860112;29;20369;-91
2023/02/13 08:19:10;;;;;;;;;;;;;;;;;;4844905;29;19931;-90
2023/02/13 08:21:37;;;;;;;;;;;;;;;;;;4861530;29;20281;-91
2023/02/13 08:24:02;;;;;;;;;;;;;;;;;;4859768;29;19967;-88
2023/02/13 08:26:28;;;;;;;;;;;;;;;;;;4860771;29;20047;-88
2023/02/13 08:28:54;;;;;;;;;;;;;;;;;;4845316;29;20393;-88
2023/02/13 08:31:20;;;;;;;;;;;;;;;;;;4860480;29;19983;-88
2023/02/13 08:33:46;;;;;;;;;;;;;;;;;;4850074;29;19931;-88
2023/02/13 08:36:12;;;;;;;;;;;;;;;;;;4861521;29;19935;-88
2023/02/13 08:38:38;;;;;;;;;;;;;;;;;;4843897;29;20376;-88
2023/02/13 08:41:04;;;;;;;;;;;;;;;;;;4844151;29;19924;-88
2023/02/13 08:43:30;;;;;;;;;;;;;;;;;;4843587;29;19928;-88
2023/02/13 08:45:56;;;;;;;;;;;;;;;;;;4860531;29;19924;-88
2023/02/13 08:48:22;;;;;;;;;;;;;;;;;;4828333;29;19928;-88
2023/02/13 08:50:48;;;;;;;;;;;;;;;;;;4844175;29;20411;-91
2023/02/13 08:53:13;;;;;;;;;;;;;;;;;;4828721;29;19924;-90
2023/02/13 08:55:39;;;;;;;;;;;;;;;;;;4829007;29;19932;-89
2023/02/13 08:58:05;;;;;;;;;;;;;;;;;;4829501;29;20275;-91
2023/02/13 09:00:31;;;;;;;;;;;;;;;;;;4828806;29;20293;-91
2023/02/13 09:02:57;;;;;;;;;;;;;;;;;;4829010;29;20367;-91
2023/02/13 09:05:23;;;;;;;;;;;;;;;;;;4844144;29;19928;-90
2023/02/13 09:07:49;;;;;;;;;;;;;;;;;;4828463;29;20011;-91
2023/02/13 09:10:15;;;;;;;;;;;;;;;;;;4844925;29;20023;-90
2023/02/13 09:12:42;;;;;;;;;;;;;;;;;;4846000;29;19935;-91
2023/02/13 09:15:08;;;;;;;;;;;;;;;;;;4845400;29;20358;-91
2023/02/13 09:17:34;;;;;;;;;;;;;;;;;;4845780;29;19924;-91
2023/02/13 09:20:00;;;;;;;;;;;;;;;;;;4844445;29;19931;-90
2023/02/13 09:22:26;;;;;;;;;;;;;;;;;;4844092;29;19932;-91
2023/02/13 09:24:52;;;;;;;;;;;;;;;;;;4828238;29;19928;-90
2023/02/13 09:27:18;;;;;;;;;;;;;;;;;;4860090;29;19928;-91
2023/02/13 09:29:44;;;;;;;;;;;;;;;;;;4828439;29;19928;-90
2023/02/13 09:32:10;;;;;;;;;;;;;;;;;;4843393;29;19974;-90
2023/02/13 09:34:35;;;;;;;;;;;;;;;;;;4860435;29;19979;-89
2023/02/13 09:37:01;;;;;;;;;;;;;;;;;;4828311;29;20396;-91
2023/02/13 09:39:27;;;;;;;;;;;;;;;;;;4828318;29;20278;-90
2023/02/13 09:41:53;;;;;;;;;;;;;;;;;;4859833;29;19991;-90
2023/02/13 09:44:36;;;;;;;;;;;;;;;;;;4858643;29;19971;-88
2023/02/13 09:47:02;;;;;;;;;;;;;;;;;;4875691;29;19983;-91
2023/02/13 09:49:28;;;;;;;;;;;;;;;;;;4877182;29;19931;-91
2023/02/13 09:51:54;;;;;;;;;;;;;;;;;;4877041;29;19924;-92
2023/02/13 09:54:20;;;;;;;;;;;;;;;;;;4862323;29;20019;-93
2023/02/13 09:56:48;;;;;;;;;;;;;;;;;;4876965;29;19932;-91
2023/02/13 09:59:15;;;;;;;;;;;;;;;;;;4862867;29;19963;-90
2023/02/13 10:01:41;;;;;;;;;;;;;;;;;;4846533;29;19924;-89
2023/02/13 10:04:07;;;;;;;;;;;;;;;;;;4862210;29;20079;-89
2023/02/13 10:06:33;;;;;;;;;;;;;;;;;;4862054;29;20285;-89
2023/02/13 10:08:59;;;;;;;;;;;;;;;;;;4862841;29;19928;-89
2023/02/13 10:11:25;;;;;;;;;;;;;;;;;;4846269;29;19930;-89
2023/02/13 10:13:50;;;;;;;;;;;;;;;;;;4861904;29;19931;-92
2023/02/13 10:16:16;;;;;;;;;;;;;;;;;;4862187;29;19924;-88
2023/02/13 10:18:42;;;;;;;;;;;;;;;;;;4846234;29;19939;-90
2023/02/13 10:21:08;;;;;;;;;;;;;;;;;;4877592;29;19924;-91
2023/02/13 10:23:34;;;;;;;;;;;;;;;;;;4861915;29;20357;-91
2023/02/13 10:26:00;;;;;;;;;;;;;;;;;;4861761;29;19928;-90
2023/02/13 10:28:26;;;;;;;;;;;;;;;;;;4861561;29;19924;-90
2023/02/13 10:30:52;;;;;;;;;;;;;;;;;;4846099;29;20312;-90
2023/02/13 10:33:18;;;;;;;;;;;;;;;;;;4877016;29;19923;-92
2023/02/13 10:35:44;;;;;;;;;;;;;;;;;;4876949;29;19924;-90
2023/02/13 10:38:10;;;;;;;;;;;;;;;;;;4862657;29;19975;-89
2023/02/13 10:40:36;;;;;;;;;;;;;;;;;;4861587;29;19924;-90
2023/02/13 10:43:02;;;;;;;;;;;;;;;;;;4845833;29;19932;-91
2023/02/13 10:45:28;;;;;;;;;;;;;;;;;;4884440;29;19924;-92
2023/02/13 10:47:54;;;;;;;;;;;;;;;;;;4849207;29;20010;-92
2023/02/13 10:50:20;;;;;;;;;;;;;;;;;;4864646;29;19994;-94
2023/02/13 10:52:46;;;;;;;;;;;;;;;;;;4849220;29;19930;-89
2023/02/13 10:55:12;;;;;;;;;;;;;;;;;;4849013;29;20015;-90
2023/02/13 10:57:38;;;;;;;;;;;;;;;;;;4864233;29;19971;-91
2023/02/13 11:00:04;;;;;;;;;;;;;;;;;;4865481;29;19931;-91
2023/02/13 11:02:35;;;;;;;;;;;;;;;;;;4852977;29;19931;-90
2023/02/13 11:05:03;;;;;;;;;;;;;;;;;;4867815;29;19923;-93
2023/02/13 11:10:05;;;;;;;;;;;;;;;;;;5382321;23;19935;-91
2023/02/13 11:12:31;;;;;;;;;;;;;;;;;;4883070;29;20329;-90
2023/02/13 11:14:57;;;;;;;;;;;;;;;;;;4882529;29;19928;-91
2023/02/13 11:17:23;;;;;;;;;;;;;;;;;;4882420;29;19923;-90
2023/02/13 11:19:52;;;;;;;;;;;;;;;;;;4863958;29;19924;-90
2023/02/13 11:22:18;;;;;;;;;;;;;;;;;;4848719;29;19932;-91
2023/02/13 11:24:44;;;;;;;;;;;;;;;;;;4849024;29;19924;-91
2023/02/13 11:27:12;;;;;;;;;;;;;;;;;;4864150;29;20007;-93
2023/02/13 11:29:38;;;;;;;;;;;;;;;;;;4848658;29;19927;-92
2023/02/13 11:32:04;;;;;;;;;;;;;;;;;;4867623;29;19943;-94
2023/02/13 11:34:30;;;;;;;;;;;;;;;;;;4865970;29;19924;-93
2023/02/13 11:36:56;;;;;;;;;;;;;;;;;;4866170;29;20265;-93
2023/02/13 11:39:28;;;;;;;;;;;;;;;;;;4848412;29;19923;-92
2023/02/13 11:41:54;;;;;;;;;;;;;;;;;;4863699;29;20207;-90
2023/02/13 11:44:20;;;;;;;;;;;;;;;;;;4863134;29;19984;-92
2023/02/13 11:46:46;;;;;;;;;;;;;;;;;;4862687;29;20043;-89
2023/02/13 11:49:11;;;;;;;;;;;;;;;;;;4834438;29;19924;-90
2023/02/13 11:51:38;;;;;;;;;;;;;;;;;;4829044;29;19924;-88
2023/02/13 11:54:04;;;;;;;;;;;;;;;;;;4859989;29;20245;-89
2023/02/13 11:56:30;;;;;;;;;;;;;;;;;;4829327;29;20015;-89
2023/02/13 11:58:55;;;;;;;;;;;;;;;;;;4829617;29;19931;-89
2023/02/13 12:01:21;;;;;;;;;;;;;;;;;;4844541;29;19924;-89
2023/02/13 12:03:47;;;;;;;;;;;;;;;;;;4843829;29;19988;-89
2023/02/13 12:06:14;;;;;;;;;;;;;;;;;;4828710;29;19978;-89
2023/02/13 12:08:40;;;;;;;;;;;;;;;;;;4828944;29;20031;-89
2023/02/13 12:11:06;;;;;;;;;;;;;;;;;;4828229;29;19936;-88
2023/02/13 12:13:31;;;;;;;;;;;;;;;;;;4828917;29;20393;-88
2023/02/13 12:15:58;;;;;;;;;;;;;;;;;;4843764;29;19977;-88
2023/02/13 12:18:23;;;;;;;;;;;;;;;;;;4828305;29;19931;-88
2023/02/13 12:20:49;;;;;;;;;;;;;;;;;;4828442;29;19924;-89
2023/02/13 12:23:15;;;;;;;;;;;;;;;;;;4843994;29;19935;-91
2023/02/13 12:25:41;;;;;;;;;;;;;;;;;;4863164;29;20339;-90
2023/02/13 12:28:07;;;;;;;;;;;;;;;;;;4847713;29;19927;-89
2023/02/13 12:30:33;;;;;;;;;;;;;;;;;;4846886;29;19924;-92
2023/02/13 12:32:59;;;;;;;;;;;;;;;;;;4847226;29;20014;-88
2023/02/13 12:35:25;;;;;;;;;;;;;;;;;;4862814;29;19998;-87
2023/02/13 12:37:51;;;;;;;;;;;;;;;;;;4862368;29;19931;-88
2023/02/13 12:40:17;;;;;;;;;;;;;;;;;;4847098;29;20291;-92
2023/02/13 12:42:43;;;;;;;;;;;;;;;;;;4847110;29;19979;-90
2023/02/13 12:45:09;;;;;;;;;;;;;;;;;;4853003;29;19925;-91
2023/02/13 12:47:35;;;;;;;;;;;;;;;;;;4828691;29;19931;-90
2023/02/13 12:50:01;;;;;;;;;;;;;;;;;;4828829;29;20360;-89
2023/02/13 12:52:27;;;;;;;;;;;;;;;;;;4859347;29;20140;-90
2023/02/13 12:54:54;;;;;;;;;;;;;;;;;;4843757;29;20357;-90
2023/02/13 12:57:19;;;;;;;;;;;;;;;;;;4843513;29;20297;-89
2023/02/13 12:59:45;;;;;;;;;;;;;;;;;;4843509;29;19924;-90
2023/02/13 13:02:11;;;;;;;;;;;;;;;;;;4828178;29;19976;-89
2023/02/13 13:04:39;;;;;;;;;;;;;;;;;;4828544;29;19972;-89
2023/02/13 13:07:05;;;;;;;;;;;;;;;;;;4828226;29;20011;-88
2023/02/13 13:09:31;;;;;;;;;;;;;;;;;;4843192;29;19974;-88
2023/02/13 13:11:57;;;;;;;;;;;;;;;;;;4843434;29;20028;-87
2023/02/13 13:14:22;;;;;;;;;;;;;;;;;;4843466;29;20460;-87
2023/02/13 13:16:48;;;;;;;;;;;;;;;;;;4843169;29;19928;-87
2023/02/13 13:19:14;;;;;;;;;;;;;;;;;;4860027;29;19924;-86
2023/02/13 13:21:40;;;;;;;;;;;;;;;;;;4842520;29;19924;-90
2023/02/13 13:24:06;;;;;;;;;;;;;;;;;;4828256;29;19959;-90
2023/02/13 13:26:34;;;;;;;;;;;;;;;;;;4843180;29;19947;-88
2023/02/13 13:29:00;;;;;;;;;;;;;;;;;;4843164;29;19924;-87
2023/02/13 13:31:26;;;;;;;;;;;;;;;;;;4859878;29;19936;-88
2023/02/13 13:33:52;;;;;;;;;;;;;;;;;;4843502;29;20270;-88
2023/02/13 13:36:18;;;;;;;;;;;;;;;;;;4827932;29;19924;-88
2023/02/13 13:38:44;;;;;;;;;;;;;;;;;;4842999;29;20292;-88
2023/02/13 13:41:10;;;;;;;;;;;;;;;;;;4843275;29;19928;-88
2023/02/13 13:43:36;;;;;;;;;;;;;;;;;;4842878;29;20080;-86
2023/02/13 13:46:02;;;;;;;;;;;;;;;;;;4858291;29;19980;-88
2023/02/13 13:48:28;;;;;;;;;;;;;;;;;;4842829;29;20015;-88
2023/02/13 13:50:54;;;;;;;;;;;;;;;;;;4827751;29;19963;-88
2023/02/13 13:53:22;;;;;;;;;;;;;;;;;;4828025;29;20427;-87
2023/02/13 13:55:48;;;;;;;;;;;;;;;;;;4828104;29;20405;-86
2023/02/13 13:58:14;;;;;;;;;;;;;;;;;;4842929;29;20088;-86
2023/02/13 14:00:40;;;;;;;;;;;;;;;;;;4843149;29;20412;-86
2023/02/13 14:03:05;;;;;;;;;;;;;;;;;;4842832;29;19936;-86
2023/02/13 14:05:32;;;;;;;;;;;;;;;;;;4843151;29;19924;-86
2023/02/13 14:07:57;;;;;;;;;;;;;;;;;;4859310;29;20385;-86
2023/02/13 14:10:23;;;;;;;;;;;;;;;;;;4842536;29;19928;-86
2023/02/13 14:12:49;;;;;;;;;;;;;;;;;;4859570;29;19924;-85
2023/02/13 14:15:15;;;;;;;;;;;;;;;;;;4843174;29;19995;-85
2023/02/13 14:17:41;;;;;;;;;;;;;;;;;;4842886;29;19932;-87
2023/02/13 14:20:07;;;;;;;;;;;;;;;;;;4843026;29;19924;-88
2023/02/13 14:22:33;;;;;;;;;;;;;;;;;;4842656;29;19928;-88
2023/02/13 14:24:59;;;;;;;;;;;;;;;;;;4827894;29;19967;-87
2023/02/13 14:27:25;;;;;;;;;;;;;;;;;;4827542;29;19931;-91
2023/02/13 14:29:51;;;;;;;;;;;;;;;;;;4828098;29;19924;-91
2023/02/13 14:32:17;;;;;;;;;;;;;;;;;;4858554;29;19928;-90
2023/02/13 14:34:43;;;;;;;;;;;;;;;;;;4831127;29;19931;-93
2023/02/13 14:37:08;;;;;;;;;;;;;;;;;;4846421;29;19960;-93
2023/02/13 14:39:34;;;;;;;;;;;;;;;;;;4830941;29;19931;-93
2023/02/13 14:42:00;;;;;;;;;;;;;;;;;;4846040;29;19928;-91
2023/02/13 14:44:26;;;;;;;;;;;;;;;;;;4830668;29;19956;-87
2023/02/13 14:46:52;;;;;;;;;;;;;;;;;;4830757;29;19931;-88
2023/02/13 14:49:18;;;;;;;;;;;;;;;;;;4830958;29;19927;-87
2023/02/13 14:51:44;;;;;;;;;;;;;;;;;;4830366;29;19928;-86
2023/02/13 14:54:10;;;;;;;;;;;;;;;;;;4830681;29;19924;-87
2023/02/13 14:56:36;;;;;;;;;;;;;;;;;;4862373;29;20349;-91
2023/02/13 14:59:02;;;;;;;;;;;;;;;;;;4845901;29;19928;-87
2023/02/13 15:01:28;;;;;;;;;;;;;;;;;;4862387;29;20048;-86
2023/02/13 15:03:54;;;;;;;;;;;;;;;;;;4845311;29;20019;-87
2023/02/13 15:06:20;;;;;;;;;;;;;;;;;;4845406;29;19971;-85
2023/02/13 15:08:46;;;;;;;;;;;;;;;;;;4845325;29;19928;-85
2023/02/13 15:11:34;;;;;;;;;;;;;;;;;;4845255;29;19935;-86
2023/02/13 15:14:00;;;;;;;;;;;;;;;;;;4845412;29;19931;-86
2023/02/13 15:16:26;;;;;;;;;;;;;;;;;;4845082;29;19928;-85
2023/02/13 15:18:54;;;;;;;;;;;;;;;;;;4845067;29;19924;-86
2023/02/13 15:21:20;;;;;;;;;;;;;;;;;;4844892;29;20003;-86
2023/02/13 15:23:45;;;;;;;;;;;;;;;;;;4844698;29;20460;-87
2023/02/13 15:26:11;;;;;;;;;;;;;;;;;;4844257;29;19939;-88
2023/02/13 15:28:37;;;;;;;;;;;;;;;;;;4829268;29;19946;-88
2023/02/13 15:31:04;;;;;;;;;;;;;;;;;;4844914;29;19928;-85
2023/02/13 15:33:30;;;;;;;;;;;;;;;;;;4829456;29;19924;-86
2023/02/13 15:35:56;;;;;;;;;;;;;;;;;;4861391;29;19924;-88
2023/02/13 15:38:21;;;;;;;;;;;;;;;;;;4844464;29;20484;-88
2023/02/13 15:40:47;;;;;;;;;;;;;;;;;;4829288;29;20056;-88
2023/02/13 15:43:13;;;;;;;;;;;;;;;;;;4861012;29;19971;-86
2023/02/13 15:45:39;;;;;;;;;;;;;;;;;;4843862;29;19928;-87
2023/02/13 15:48:05;;;;;;;;;;;;;;;;;;4844531;29;19931;-86
2023/02/13 15:50:31;;;;;;;;;;;;;;;;;;4844638;29;19924;-86
2023/02/13 15:52:57;;;;;;;;;;;;;;;;;;4844623;29;19931;-87
2023/02/13 15:55:23;;;;;;;;;;;;;;;;;;4829236;29;19931;-87
2023/02/13 15:57:49;;;;;;;;;;;;;;;;;;4860923;29;20008;-86
2023/02/13 16:00:15;;;;;;;;;;;;;;;;;;4844129;29;20007;-86
2023/02/13 16:02:41;;;;;;;;;;;;;;;;;;4829082;29;19928;-86
2023/02/13 16:05:06;;;;;;;;;;;;;;;;;;4844205;29;19928;-87
2023/02/13 16:07:32;;;;;;;;;;;;;;;;;;4843711;29;20171;-86
2023/02/13 16:09:58;;;;;;;;;;;;;;;;;;4860946;29;20003;-86
2023/02/13 16:12:24;;;;;;;;;;;;;;;;;;4828695;29;20035;-86
2023/02/13 16:14:50;;;;;;;;;;;;;;;;;;4843780;29;20010;-86
2023/02/13 16:17:16;;;;;;;;;;;;;;;;;;4843840;29;20336;-87
2023/02/13 16:19:42;;;;;;;;;;;;;;;;;;4828924;29;19924;-86
2023/02/13 16:22:08;;;;;;;;;;;;;;;;;;4843966;29;19941;-87
2023/02/13 16:24:34;;;;;;;;;;;;;;;;;;4860421;29;20392;-86
2023/02/13 16:27:00;;;;;;;;;;;;;;;;;;4843570;29;19924;-87
2023/02/13 16:29:27;;;;;;;;;;;;;;;;;;4860339;29;19928;-86
2023/02/13 16:31:53;;;;;;;;;;;;;;;;;;4843986;29;20219;-87
2023/02/13 16:34:19;;;;;;;;;;;;;;;;;;4860211;29;19924;-87
2023/02/13 16:36:44;;;;;;;;;;;;;;;;;;4843278;29;19924;-86
2023/02/13 16:39:11;;;;;;;;;;;;;;;;;;4843630;29;19924;-87
2023/02/13 16:41:37;;;;;;;;;;;;;;;;;;4860482;29;19928;-86
2023/02/13 16:44:02;;;;;;;;;;;;;;;;;;4843920;29;19934;-87
2023/02/13 16:46:28;;;;;;;;;;;;;;;;;;4860351;29;19924;-87
2023/02/13 16:48:54;;;;;;;;;;;;;;;;;;4860080;29;19931;-87
2023/02/13 16:51:20;;;;;;;;;;;;;;;;;;4828491;29;19924;-88
2023/02/13 16:53:46;;;;;;;;;;;;;;;;;;4860277;29;20020;-87
2023/02/13 16:56:12;;;;;;;;;;;;;;;;;;4843659;29;19924;-87
2023/02/13 16:58:38;;;;;;;;;;;;;;;;;;4843610;29;19924;-86
2023/02/13 17:01:04;;;;;;;;;;;;;;;;;;4843335;29;19924;-88
2023/02/13 17:03:30;;;;;;;;;;;;;;;;;;4860192;29;19980;-90
2023/02/13 17:05:56;;;;;;;;;;;;;;;;;;4860155;29;20007;-89
2023/02/13 17:08:22;;;;;;;;;;;;;;;;;;4860125;29;19982;-89
2023/02/13 17:10:48;;;;;;;;;;;;;;;;;;4827810;29;19928;-90
2023/02/13 17:13:13;;;;;;;;;;;;;;;;;;4843290;29;19924;-88
2023/02/13 17:15:39;;;;;;;;;;;;;;;;;;4843782;29;20389;-92
2023/02/13 17:18:05;;;;;;;;;;;;;;;;;;4828516;29;20019;-89
2023/02/13 17:20:32;;;;;;;;;;;;;;;;;;4843206;29;19972;-88
2023/02/13 17:22:58;;;;;;;;;;;;;;;;;;4842785;29;19928;-89
2023/02/13 17:25:23;;;;;;;;;;;;;;;;;;4842979;29;19924;-89
2023/02/13 17:27:49;;;;;;;;;;;;;;;;;;4842948;29;19924;-89
2023/02/13 17:30:15;;;;;;;;;;;;;;;;;;4843563;29;20377;-90
2023/02/13 17:32:41;;;;;;;;;;;;;;;;;;4843372;29;19924;-91
2023/02/13 17:35:07;;;;;;;;;;;;;;;;;;4828209;29;19968;-93
2023/02/13 17:37:33;;;;;;;;;;;;;;;;;;4842575;29;19924;-87
2023/02/13 17:39:59;;;;;;;;;;;;;;;;;;4859614;29;19932;-88
2023/02/13 17:42:25;;;;;;;;;;;;;;;;;;4842848;29;19968;-88
2023/02/13 17:44:51;;;;;;;;;;;;;;;;;;4859330;29;19931;-89
2023/02/13 17:47:17;;;;;;;;;;;;;;;;;;4827783;29;19998;-88
2023/02/13 17:49:43;;;;;;;;;;;;;;;;;;4842673;29;19931;-89
2023/02/13 17:52:09;;;;;;;;;;;;;;;;;;4842820;29;20023;-88
2023/02/13 17:54:34;;;;;;;;;;;;;;;;;;4842698;29;19924;-89
2023/02/13 17:57:00;;;;;;;;;;;;;;;;;;4827569;29;19924;-88
2023/02/13 17:59:26;;;;;;;;;;;;;;;;;;4827829;29;19965;-89
2023/02/13 18:01:53;;;;;;;;;;;;;;;;;;4842974;29;19930;-90
2023/02/13 18:04:19;;;;;;;;;;;;;;;;;;4842899;29;19954;-89
2023/02/13 18:06:45;;;;;;;;;;;;;;;;;;4827602;29;20339;-90
2023/02/13 18:09:12;;;;;;;;;;;;;;;;;;4830439;29;19924;-89
2023/02/13 18:11:38;;;;;;;;;;;;;;;;;;4862840;29;20323;-88
2023/02/13 18:14:04;;;;;;;;;;;;;;;;;;4846507;29;20018;-90
2023/02/13 18:16:30;;;;;;;;;;;;;;;;;;4831203;29;19947;-90
2023/02/13 18:18:56;;;;;;;;;;;;;;;;;;4846389;29;19933;-89
2023/02/13 18:21:22;;;;;;;;;;;;;;;;;;4830775;29;19978;-89
2023/02/13 18:23:48;;;;;;;;;;;;;;;;;;4845998;29;19953;-89
2023/02/13 18:26:14;;;;;;;;;;;;;;;;;;4862910;29;20281;-90
2023/02/13 18:28:40;;;;;;;;;;;;;;;;;;4846390;29;19924;-91
2023/02/13 18:31:06;;;;;;;;;;;;;;;;;;4830686;29;20411;-91
2023/02/13 18:33:32;;;;;;;;;;;;;;;;;;4846047;29;19924;-90
2023/02/13 18:35:58;;;;;;;;;;;;;;;;;;4846172;29;19924;-89
2023/02/13 18:38:24;;;;;;;;;;;;;;;;;;4845712;29;20282;-89
2023/02/13 18:40:50;;;;;;;;;;;;;;;;;;4862873;29;19924;-88
2023/02/13 18:43:16;;;;;;;;;;;;;;;;;;4845939;29;20068;-92
2023/02/13 18:45:44;;;;;;;;;;;;;;;;;;4831295;29;19989;-90
2023/02/13 18:48:10;;;;;;;;;;;;;;;;;;4846459;29;19924;-91
2023/02/13 18:50:36;;;;;;;;;;;;;;;;;;4830287;29;20449;-91
2023/02/13 18:53:02;;;;;;;;;;;;;;;;;;4830385;29;20426;-91
2023/02/13 18:55:28;;;;;;;;;;;;;;;;;;4845416;29;19930;-91
2023/02/13 18:57:55;;;;;;;;;;;;;;;;;;4830478;29;19924;-91
2023/02/13 19:00:22;;;;;;;;;;;;;;;;;;4845263;29;19924;-90
2023/02/13 19:02:48;;;;;;;;;;;;;;;;;;4829904;29;19972;-91
2023/02/13 19:05:14;;;;;;;;;;;;;;;;;;4829977;29;19967;-91
2023/02/13 19:07:40;;;;;;;;;;;;;;;;;;4830293;29;19924;-88
2023/02/13 19:10:06;;;;;;;;;;;;;;;;;;4829883;29;19934;-91
2023/02/13 19:12:32;;;;;;;;;;;;;;;;;;4845504;29;19924;-90
2023/02/13 19:14:58;;;;;;;;;;;;;;;;;;4845226;29;19924;-91
2023/02/13 19:17:24;;;;;;;;;;;;;;;;;;4830153;29;19924;-91
2023/02/13 19:19:50;;;;;;;;;;;;;;;;;;4828881;29;19924;-90
2023/02/13 19:22:16;;;;;;;;;;;;;;;;;;4845043;29;19972;-88
2023/02/13 19:24:42;;;;;;;;;;;;;;;;;;4844737;29;20369;-89
2023/02/13 19:27:08;;;;;;;;;;;;;;;;;;4844945;29;19959;-90
2023/02/13 19:29:34;;;;;;;;;;;;;;;;;;4829536;29;19924;-89
2023/02/13 19:32:02;;;;;;;;;;;;;;;;;;4829738;29;20125;-90
2023/02/13 19:34:27;;;;;;;;;;;;;;;;;;4829619;29;20014;-91
2023/02/13 19:36:53;;;;;;;;;;;;;;;;;;4860321;29;19924;-90
2023/02/13 19:39:19;;;;;;;;;;;;;;;;;;4861831;29;19943;-92
2023/02/13 19:41:45;;;;;;;;;;;;;;;;;;4844956;29;19946;-92
2023/02/13 19:44:11;;;;;;;;;;;;;;;;;;4844819;29;20229;-91
2023/02/13 19:46:37;;;;;;;;;;;;;;;;;;4844461;29;19928;-91
2023/02/13 19:49:03;;;;;;;;;;;;;;;;;;4844343;29;19944;-89
2023/02/13 19:51:29;;;;;;;;;;;;;;;;;;4844331;29;19972;-90
2023/02/13 19:53:56;;;;;;;;;;;;;;;;;;4844232;29;19930;-91
2023/02/13 19:56:22;;;;;;;;;;;;;;;;;;4828819;29;20395;-89
2023/02/13 19:58:48;;;;;;;;;;;;;;;;;;4828857;29;19924;-90
2023/02/13 20:01:14;;;;;;;;;;;;;;;;;;4828601;29;19975;-89
2023/02/13 20:03:43;;;;;;;;;;;;;;;;;;4829221;29;19983;-88
2023/02/13 20:06:09;;;;;;;;;;;;;;;;;;4842984;29;19924;-89
2023/02/13 20:08:35;;;;;;;;;;;;;;;;;;4847333;29;19975;-89
2023/02/13 20:11:00;;;;;;;;;;;;;;;;;;4862035;29;19982;-90
2023/02/13 20:13:26;;;;;;;;;;;;;;;;;;4847450;29;19928;-89
2023/02/13 20:15:52;;;;;;;;;;;;;;;;;;4846865;29;20414;-91
2023/02/13 20:18:18;;;;;;;;;;;;;;;;;;4847349;29;19924;-90
2023/02/13 20:20:44;;;;;;;;;;;;;;;;;;4846693;29;19924;-91
2023/02/13 20:23:10;;;;;;;;;;;;;;;;;;4862094;29;20101;-90
2023/02/13 20:25:36;;;;;;;;;;;;;;;;;;4846582;29;19924;-90
2023/02/13 20:28:02;;;;;;;;;;;;;;;;;;4878767;29;19924;-90
2023/02/13 20:30:28;;;;;;;;;;;;;;;;;;4861707;29;20024;-90
2023/02/13 20:32:54;;;;;;;;;;;;;;;;;;4878928;29;19971;-91
2023/02/13 20:35:20;;;;;;;;;;;;;;;;;;4862276;29;20372;-91
2023/02/13 20:37:48;;;;;;;;;;;;;;;;;;4845890;29;19923;-90
2023/02/13 20:40:14;;;;;;;;;;;;;;;;;;4861653;29;19939;-89
2023/02/13 20:42:40;;;;;;;;;;;;;;;;;;4861731;29;20095;-90
2023/02/13 20:45:07;;;;;;;;;;;;;;;;;;4861612;29;19963;-91
2023/02/13 20:47:33;;;;;;;;;;;;;;;;;;4861935;29;19923;-91
2023/02/13 20:49:59;;;;;;;;;;;;;;;;;;4861668;29;20003;-88
2023/02/13 20:52:25;;;;;;;;;;;;;;;;;;4861968;29;20419;-91
2023/02/13 20:54:52;;;;;;;;;;;;;;;;;;4879195;29;19930;-91
2023/02/13 20:57:18;;;;;;;;;;;;;;;;;;4861853;29;19923;-91
2023/02/13 20:59:44;;;;;;;;;;;;;;;;;;4878591;29;19979;-92
2023/02/13 21:02:10;;;;;;;;;;;;;;;;;;4846856;29;19924;-93
2023/02/13 21:04:36;;;;;;;;;;;;;;;;;;4861952;29;20331;-92
2023/02/13 21:07:02;;;;;;;;;;;;;;;;;;4861848;29;20416;-92
2023/02/13 21:09:28;;;;;;;;;;;;;;;;;;4846040;29;19931;-90
2023/02/13 21:11:54;;;;;;;;;;;;;;;;;;4861379;29;19932;-90
2023/02/13 21:14:20;;;;;;;;;;;;;;;;;;4861915;29;19923;-92
2023/02/13 21:16:46;;;;;;;;;;;;;;;;;;4846180;29;19924;-91
2023/02/13 21:19:12;;;;;;;;;;;;;;;;;;4845947;29;19968;-91
2023/02/13 21:21:42;;;;;;;;;;;;;;;;;;4846662;29;19952;-93
2023/02/13 21:24:09;;;;;;;;;;;;;;;;;;4861274;29;19932;-93
2023/02/13 21:26:35;;;;;;;;;;;;;;;;;;4846300;29;19995;-89
2023/02/13 21:29:01;;;;;;;;;;;;;;;;;;4846076;29;19931;-90
2023/02/13 21:31:28;;;;;;;;;;;;;;;;;;4861953;29;20054;-93
2023/02/13 21:33:54;;;;;;;;;;;;;;;;;;4847354;29;20372;-92
2023/02/13 21:36:20;;;;;;;;;;;;;;;;;;4848216;29;19964;-92
2023/02/13 21:38:45;;;;;;;;;;;;;;;;;;4861879;29;20387;-94
2023/02/13 21:41:11;;;;;;;;;;;;;;;;;;4862087;29;19924;-94
2023/02/13 21:43:37;;;;;;;;;;;;;;;;;;4863891;29;20027;-93
2023/02/13 21:46:03;;;;;;;;;;;;;;;;;;4850419;29;20018;-92
2023/02/13 21:48:29;;;;;;;;;;;;;;;;;;4850318;29;19923;-93
2023/02/13 21:50:55;;;;;;;;;;;;;;;;;;4850141;29;19941;-93
2023/02/13 21:53:21;;;;;;;;;;;;;;;;;;4850182;29;19930;-91
2023/02/13 21:55:47;;;;;;;;;;;;;;;;;;4850306;29;19927;-91
2023/02/13 21:58:13;;;;;;;;;;;;;;;;;;4865457;29;19930;-91
2023/02/13 22:00:39;;;;;;;;;;;;;;;;;;4882290;29;19988;-92
2023/02/13 22:03:05;;;;;;;;;;;;;;;;;;4865340;29;19975;-92
2023/02/13 22:05:31;;;;;;;;;;;;;;;;;;4881744;29;19924;-91
2023/02/13 22:08:09;;;;;;;;;;;;;;;;;;4849923;29;19927;-92
2023/02/13 22:10:35;;;;;;;;;;;;;;;;;;4849329;29;19928;-92
2023/02/13 22:13:01;;;;;;;;;;;;;;;;;;4865211;29;19924;-92
2023/02/13 22:15:27;;;;;;;;;;;;;;;;;;4849711;29;20083;-92
2023/02/13 22:17:53;;;;;;;;;;;;;;;;;;4849824;29;19924;-91
2023/02/13 22:20:21;;;;;;;;;;;;;;;;;;4865360;29;19932;-91
2023/02/13 22:22:47;;;;;;;;;;;;;;;;;;4849569;29;19931;-92
2023/02/13 22:25:13;;;;;;;;;;;;;;;;;;4849746;29;20063;-92
2023/02/13 22:27:39;;;;;;;;;;;;;;;;;;4849433;29;19928;-94
2023/02/13 22:30:11;;;;;;;;;;;;;;;;;;4865053;29;19928;-95
2023/02/13 22:32:38;;;;;;;;;;;;;;;;;;4881339;29;19924;-94
2023/02/13 22:35:06;;;;;;;;;;;;;;;;;;4849278;29;19930;-95
2023/02/13 22:37:35;;;;;;;;;;;;;;;;;;4849417;29;20010;-94
2023/02/13 22:40:03;;;;;;;;;;;;;;;;;;4849705;29;19988;-95
2023/02/13 22:42:29;;;;;;;;;;;;;;;;;;4880166;29;19971;-92
2023/02/13 22:44:58;;;;;;;;;;;;;;;;;;4849379;29;19924;-94
2023/02/13 22:47:26;;;;;;;;;;;;;;;;;;4849562;29;19943;-95
2023/02/13 22:49:52;;;;;;;;;;;;;;;;;;4864718;29;19928;-95
2023/02/13 22:52:18;;;;;;;;;;;;;;;;;;4849320;29;20372;-94
2023/02/13 22:54:44;;;;;;;;;;;;;;;;;;4849167;29;19924;-92
2023/02/13 22:57:12;;;;;;;;;;;;;;;;;;4849180;29;20276;-93
2023/02/13 22:59:38;;;;;;;;;;;;;;;;;;4864893;29;19935;-92
2023/02/13 23:02:04;;;;;;;;;;;;;;;;;;4864114;29;19924;-93
2023/02/13 23:04:30;;;;;;;;;;;;;;;;;;4849637;29;20022;-94
2023/02/13 23:06:56;;;;;;;;;;;;;;;;;;4864437;29;20378;-93
2023/02/13 23:09:22;;;;;;;;;;;;;;;;;;4849121;29;19928;-94
2023/02/13 23:14:33;;;;;;;;;;;;;;;;;;4864185;29;20086;-93
2023/02/13 23:19:44;;;;;;;;;;;;;;;;;;4863939;29;19924;-93
2023/02/13 23:22:12;;;;;;;;;;;;;;;;;;4849020;29;19995;-92
2023/02/13 23:24:38;;;;;;;;;;;;;;;;;;4848555;29;19924;-94
2023/02/13 23:27:04;;;;;;;;;;;;;;;;;;4848189;29;19976;-92
2023/02/13 23:29:30;;;;;;;;;;;;;;;;;;4864407;29;19963;-92